Time;durP1;ratioP1;P1;durP2;ratioP2;P2;SDS_P1;SDS_P2;PMS_P1;PMS_P2;Temp;Humidity;BMP_temperature;BMP_pressure;BME280_temperature;BME280_humidity;BME280_pressure;Samples;Min_cycle;Max_cycle;Signal;HPM_P1;HPM_P2
2024/03/21 00:01:51;;;;;;;2.08;1.50;;;4.20;99.90;;;;;;8380627;28;20025;-84
2024/03/21 00:05:52;;;;;;;2.38;1.70;;;4.40;99.90;;;;;;8358128;28;20408;-84
2024/03/21 00:09:52;;;;;;;4.15;1.90;;;4.60;99.90;;;;;;8360289;28;20112;-84
2024/03/21 00:13:53;;;;;;;3.30;1.98;;;4.90;99.90;;;;;;8383055;28;20383;-84
2024/03/21 00:17:53;;;;;;;3.55;1.83;;;4.90;99.90;;;;;;8358336;28;20029;-84
2024/03/21 00:21:54;;;;;;;3.80;2.28;;;4.70;99.90;;;;;;8379003;28;20032;-84
2024/03/21 00:26:02;;;;;;;4.03;1.98;;;4.50;99.90;;;;;;8380666;28;20474;-83
2024/03/21 00:30:05;;;;;;;3.55;1.90;;;4.50;99.90;;;;;;8365305;28;20036;-84
2024/03/21 00:34:06;;;;;;;3.28;1.83;;;4.40;99.90;;;;;;8377219;28;20033;-84
2024/03/21 00:38:06;;;;;;;2.50;1.70;;;4.30;99.90;;;;;;8375963;28;20099;-84
2024/03/21 00:42:07;;;;;;;4.82;2.30;;;4.10;99.90;;;;;;8368643;28;20090;-84
2024/03/21 00:46:08;;;;;;;5.30;2.20;;;4.00;99.90;;;;;;8357421;28;20062;-83
2024/03/21 00:50:08;;;;;;;3.17;2.10;;;3.90;99.90;;;;;;8368878;28;20033;-83
2024/03/21 00:54:09;;;;;;;4.20;2.58;;;3.90;99.90;;;;;;8377796;28;20067;-84
2024/03/21 00:58:10;;;;;;;4.13;2.25;;;3.90;99.90;;;;;;8367979;28;20033;-84
2024/03/21 01:02:11;;;;;;;3.40;1.95;;;3.80;99.90;;;;;;8356222;28;20025;-84
2024/03/21 01:06:11;;;;;;;5.57;2.00;;;3.80;99.90;;;;;;8377549;28;20029;-84
2024/03/21 01:10:12;;;;;;;4.43;1.95;;;3.70;99.90;;;;;;8378449;28;20028;-84
2024/03/21 01:14:12;;;;;;;4.15;1.92;;;3.60;99.90;;;;;;8369609;28;20355;-84
2024/03/21 01:18:14;;;;;;;6.22;2.22;;;3.50;99.90;;;;;;8353330;28;20028;-84
2024/03/21 01:22:14;;;;;;;4.63;2.20;;;3.40;99.90;;;;;;8374773;28;20322;-84
2024/03/21 01:26:15;;;;;;;4.85;2.00;;;3.30;99.90;;;;;;8388551;28;20032;-84
2024/03/21 01:30:15;;;;;;;3.78;2.08;;;3.30;99.90;;;;;;8391749;28;20133;-84
2024/03/21 01:34:16;;;;;;;2.53;1.92;;;3.40;99.90;;;;;;8383382;28;20036;-84
2024/03/21 01:38:16;;;;;;;3.15;2.17;;;3.50;99.90;;;;;;8370385;28;20055;-84
2024/03/21 01:42:18;;;;;;;3.20;2.10;;;3.60;99.90;;;;;;8374087;28;20082;-84
2024/03/21 01:46:20;;;;;;;5.40;2.13;;;3.60;99.90;;;;;;8384525;28;20028;-85
2024/03/21 01:50:20;;;;;;;2.78;1.60;;;3.50;99.90;;;;;;8380486;28;20075;-84
2024/03/21 01:54:21;;;;;;;2.72;1.70;;;3.60;99.90;;;;;;8354388;28;20041;-83
2024/03/21 01:58:22;;;;;;;4.60;1.80;;;3.40;99.90;;;;;;8366772;28;20032;-83
2024/03/21 02:02:23;;;;;;;2.65;1.65;;;3.30;99.90;;;;;;8380451;28;20064;-84
2024/03/21 02:06:26;;;;;;;3.67;2.03;;;3.30;99.90;;;;;;8373180;28;20021;-83
2024/03/21 02:10:26;;;;;;;3.63;1.70;;;3.40;99.90;;;;;;8369814;28;20021;-83
2024/03/21 02:14:33;;;;;;;3.72;1.60;;;3.30;99.90;;;;;;8359484;28;20029;-83
2024/03/21 02:18:33;;;;;;;3.05;1.75;;;3.30;99.90;;;;;;8373109;28;20148;-84
2024/03/21 02:22:37;;;;;;;3.88;2.38;;;3.30;99.90;;;;;;8359538;28;20036;-83
2024/03/21 02:26:38;;;;;;;3.53;2.10;;;3.40;99.90;;;;;;8364781;28;20032;-84
2024/03/21 02:30:39;;;;;;;4.10;2.20;;;3.50;99.90;;;;;;8355968;28;20078;-83
2024/03/21 02:34:39;;;;;;;5.13;1.70;;;3.50;99.90;;;;;;8352146;28;20052;-83
2024/03/21 02:38:40;;;;;;;4.72;2.78;;;3.60;99.90;;;;;;8351773;28;20082;-84
2024/03/21 02:42:41;;;;;;;2.80;2.00;;;3.50;99.90;;;;;;8373993;28;20555;-83
2024/03/21 02:46:41;;;;;;;6.75;2.22;;;3.60;99.90;;;;;;8377655;28;20037;-84
2024/03/21 02:50:42;;;;;;;4.25;2.28;;;3.70;99.90;;;;;;8360919;28;20021;-83
2024/03/21 02:54:42;;;;;;;3.17;2.20;;;3.80;99.90;;;;;;8364621;28;20469;-83
2024/03/21 02:58:43;;;;;;;5.38;2.33;;;3.90;99.90;;;;;;8383978;28;20029;-84
2024/03/21 03:02:43;;;;;;;9.55;2.65;;;4.00;99.90;;;;;;8363838;28;20025;-84
2024/03/21 03:06:44;;;;;;;6.03;1.90;;;4.10;99.90;;;;;;8349323;28;20057;-83
2024/03/21 03:10:44;;;;;;;5.10;2.50;;;4.10;99.90;;;;;;8351867;28;20035;-83
2024/03/21 03:14:45;;;;;;;4.28;2.58;;;4.30;99.90;;;;;;8354206;28;20024;-83
2024/03/21 03:18:45;;;;;;;3.67;2.28;;;4.40;99.90;;;;;;8362902;28;20048;-84
2024/03/21 03:22:46;;;;;;;3.40;2.28;;;4.40;99.90;;;;;;8365188;28;20036;-84
2024/03/21 03:26:46;;;;;;;4.90;2.42;;;4.40;99.90;;;;;;8368776;28;20481;-83
2024/03/21 03:30:47;;;;;;;4.30;2.60;;;4.50;99.90;;;;;;8365390;28;20013;-83
2024/03/21 03:39:07;;;;;;;4.68;2.17;;;4.70;99.90;;;;;;8366155;28;20071;-83
2024/03/21 03:43:08;;;;;;;4.32;2.22;;;4.90;99.90;;;;;;8365607;28;20030;-83
2024/03/21 03:47:08;;;;;;;3.58;2.13;;;4.80;99.90;;;;;;8346612;28;20538;-83
2024/03/21 03:51:09;;;;;;;2.95;2.30;;;4.70;99.90;;;;;;8344155;28;20017;-83
2024/03/21 03:55:09;;;;;;;3.60;2.17;;;4.60;99.90;;;;;;8342387;28;21277;-83
2024/03/21 03:59:10;;;;;;;3.20;1.90;;;4.70;99.90;;;;;;8365093;28;20029;-83
2024/03/21 04:03:11;;;;;;;4.82;2.60;;;4.80;99.90;;;;;;8348211;28;20048;-83
2024/03/21 04:07:11;;;;;;;3.95;2.33;;;4.90;99.90;;;;;;8375515;28;20061;-84
2024/03/21 04:11:16;;;;;;;4.15;2.45;;;4.90;99.90;;;;;;8375748;28;20059;-83
2024/03/21 04:15:17;;;;;;;3.80;2.30;;;5.00;99.90;;;;;;8370151;28;20017;-82
2024/03/21 04:19:17;;;;;;;5.70;2.63;;;5.00;99.90;;;;;;8372456;28;20029;-84
2024/03/21 04:23:18;;;;;;;4.15;2.38;;;5.10;99.90;;;;;;8378260;28;20104;-84
2024/03/21 04:27:19;;;;;;;4.03;2.22;;;5.10;99.90;;;;;;8380672;28;20424;-83
2024/03/21 04:31:19;;;;;;;3.17;2.25;;;5.10;99.90;;;;;;8359584;28;20074;-84
2024/03/21 04:35:20;;;;;;;4.22;2.15;;;5.30;99.90;;;;;;8383316;28;20021;-83
2024/03/21 04:39:20;;;;;;;4.10;2.20;;;5.30;99.90;;;;;;8378857;28;20063;-83
2024/03/21 04:43:21;;;;;;;2.92;2.00;;;5.50;99.90;;;;;;8371633;28;20070;-83
2024/03/21 04:47:21;;;;;;;2.08;1.50;;;5.50;99.90;;;;;;8376222;28;20464;-84
2024/03/21 04:51:22;;;;;;;5.63;2.55;;;5.70;99.90;;;;;;8379461;28;20029;-83
2024/03/21 04:55:22;;;;;;;4.38;2.00;;;5.80;99.90;;;;;;8373612;28;20032;-84
2024/03/21 04:59:25;;;;;;;3.25;2.00;;;5.90;99.90;;;;;;8378362;28;20039;-83
2024/03/21 05:03:26;;;;;;;3.35;2.00;;;6.10;99.90;;;;;;8374374;28;20463;-84
2024/03/21 05:07:27;;;;;;;2.80;1.80;;;5.80;99.90;;;;;;8360304;28;20058;-84
2024/03/21 05:11:28;;;;;;;3.45;1.70;;;5.70;99.90;;;;;;8374830;28;20489;-85
2024/03/21 05:15:28;;;;;;;3.67;1.90;;;5.60;99.90;;;;;;8355940;28;20021;-83
2024/03/21 05:19:29;;;;;;;3.50;2.20;;;5.70;99.90;;;;;;8379310;28;20393;-84
2024/03/21 05:23:30;;;;;;;4.32;2.60;;;5.90;99.90;;;;;;8382632;28;20021;-85
2024/03/21 05:27:30;;;;;;;3.25;2.50;;;6.10;99.90;;;;;;8352563;28;20024;-84
2024/03/21 05:31:31;;;;;;;3.67;2.20;;;6.70;99.90;;;;;;8358636;28;20039;-84
2024/03/21 05:35:31;;;;;;;4.57;2.75;;;6.60;99.90;;;;;;8373081;28;20032;-85
2024/03/21 05:39:32;;;;;;;6.82;2.70;;;6.80;99.90;;;;;;8371242;28;20036;-85
2024/03/21 05:43:34;;;;;;;5.43;2.72;;;6.90;99.90;;;;;;8375450;28;20033;-84
2024/03/21 05:47:34;;;;;;;4.38;2.80;;;7.30;99.90;;;;;;8377132;28;20017;-84
2024/03/21 05:51:35;;;;;;;4.70;2.80;;;7.70;99.90;;;;;;8346978;28;20481;-85
2024/03/21 05:55:35;;;;;;;5.75;2.63;;;7.90;99.90;;;;;;8363979;28;20068;-85
2024/03/21 05:59:36;;;;;;;4.35;2.85;;;8.20;99.90;;;;;;8350218;28;20074;-86
2024/03/21 06:03:36;;;;;;;4.20;2.72;;;8.40;99.90;;;;;;8356656;28;20045;-85
2024/03/21 06:07:37;;;;;;;4.43;2.30;;;8.80;99.90;;;;;;8373003;28;21839;-85
2024/03/21 06:11:38;;;;;;;4.00;2.78;;;9.10;99.90;;;;;;8347894;28;20131;-85
2024/03/21 06:15:38;;;;;;;7.28;2.78;;;9.10;99.90;;;;;;8356643;28;20040;-85
2024/03/21 06:19:39;;;;;;;4.43;2.92;;;9.40;99.90;;;;;;8375153;28;20432;-85
2024/03/21 06:23:39;;;;;;;5.88;2.85;;;9.30;99.90;;;;;;8383444;28;20079;-85
2024/03/21 06:27:40;;;;;;;10.07;5.78;;;9.20;99.90;;;;;;8387616;28;20009;-85
2024/03/21 06:31:40;;;;;;;5.25;3.20;;;9.40;99.90;;;;;;8368245;28;20060;-85
2024/03/21 06:35:41;;;;;;;4.95;3.15;;;9.60;99.90;;;;;;8388019;28;20024;-84
2024/03/21 06:39:42;;;;;;;5.30;3.10;;;9.90;99.90;;;;;;8385163;28;20021;-85
2024/03/21 06:43:42;;;;;;;4.18;2.90;;;10.20;99.90;;;;;;8383454;28;20029;-85
2024/03/21 06:47:47;;;;;;;5.63;3.05;;;10.50;99.90;;;;;;8366628;28;20115;-85
2024/03/21 06:51:47;;;;;;;5.65;2.75;;;10.60;99.90;;;;;;8369339;28;20123;-84
2024/03/21 06:55:54;;;;;;;5.38;3.03;;;10.80;99.90;;;;;;8364983;28;20048;-84
2024/03/21 06:59:54;;;;;;;4.90;3.00;;;10.80;99.90;;;;;;8362161;28;20028;-85
2024/03/21 07:03:55;;;;;;;4.55;2.85;;;10.90;99.90;;;;;;8377044;28;20078;-84
2024/03/21 07:07:55;;;;;;;4.07;2.70;;;11.20;99.90;;;;;;8381594;28;20028;-85
2024/03/21 07:11:56;;;;;;;6.80;2.97;;;11.10;99.90;;;;;;8374757;28;20473;-85
2024/03/21 07:15:57;;;;;;;4.53;2.63;;;11.20;99.90;;;;;;8384015;28;20048;-85
2024/03/21 07:19:57;;;;;;;5.38;2.72;;;11.30;99.90;;;;;;8372156;28;20021;-84
2024/03/21 07:23:58;;;;;;;4.85;2.92;;;11.20;99.90;;;;;;8355012;28;20025;-85
2024/03/21 07:27:58;;;;;;;5.30;2.70;;;10.90;99.90;;;;;;8373933;28;20428;-86
2024/03/21 07:31:59;;;;;;;4.63;2.63;;;10.60;99.90;;;;;;8357108;28;20021;-85
2024/03/21 07:36:01;;;;;;;5.03;3.25;;;10.40;99.90;;;;;;8348855;28;20460;-86
2024/03/21 07:40:05;;;;;;;5.20;2.75;;;10.30;99.90;;;;;;8358324;28;20032;-85
2024/03/21 07:44:08;;;;;;;5.75;3.13;;;10.10;99.90;;;;;;8360813;28;20047;-84
2024/03/21 07:48:08;;;;;;;3.72;2.40;;;10.10;99.90;;;;;;8360286;28;20059;-84
2024/03/21 07:52:09;;;;;;;4.10;2.78;;;10.10;99.90;;;;;;8352688;28;20028;-84
2024/03/21 07:56:09;;;;;;;6.97;3.20;;;10.10;99.90;;;;;;8346256;28;20078;-83
2024/03/21 08:00:10;;;;;;;4.78;2.83;;;10.00;99.90;;;;;;8353224;28;20050;-84
2024/03/21 08:04:11;;;;;;;4.60;2.88;;;9.90;99.90;;;;;;8366252;28;20033;-85
2024/03/21 08:08:11;;;;;;;4.43;2.92;;;9.80;99.90;;;;;;8367580;28;20025;-85
2024/03/21 08:12:12;;;;;;;5.00;2.97;;;9.90;99.90;;;;;;8356187;28;20087;-85
2024/03/21 08:16:12;;;;;;;3.67;2.58;;;10.00;99.90;;;;;;8368591;28;20071;-85
2024/03/21 08:20:13;;;;;;;5.07;3.10;;;10.00;99.90;;;;;;8372421;28;20102;-84
2024/03/21 08:24:13;;;;;;;4.85;3.00;;;10.00;99.90;;;;;;8380918;28;20039;-85
2024/03/21 08:28:14;;;;;;;4.03;2.60;;;10.00;99.90;;;;;;8354240;28;20018;-84
2024/03/21 08:32:14;;;;;;;4.30;3.00;;;9.90;99.90;;;;;;8372167;28;20043;-84
2024/03/21 08:36:15;;;;;;;6.03;3.58;;;10.10;99.90;;;;;;8350878;28;20060;-85
2024/03/21 08:40:16;;;;;;;6.22;3.78;;;10.10;99.90;;;;;;8343948;28;20040;-85
2024/03/21 08:44:16;;;;;;;7.35;3.38;;;10.10;99.90;;;;;;8353586;28;20032;-85
2024/03/21 08:48:17;;;;;;;4.97;3.22;;;10.00;99.90;;;;;;8338169;28;20486;-85
2024/03/21 08:52:17;;;;;;;5.57;3.65;;;10.10;99.90;;;;;;8364641;28;20120;-85
2024/03/21 08:56:18;;;;;;;5.85;4.00;;;10.10;99.90;;;;;;8378144;28;20035;-85
2024/03/21 09:00:18;;;;;;;7.03;3.42;;;10.00;99.90;;;;;;8368646;28;20029;-85
2024/03/21 09:04:20;;;;;;;4.63;3.50;;;10.10;99.90;;;;;;8351375;28;20055;-85
2024/03/21 09:08:20;;;;;;;6.22;3.30;;;10.30;99.90;;;;;;8373827;28;20025;-83
2024/03/21 09:12:21;;;;;;;4.32;2.63;;;10.20;99.90;;;;;;8367600;28;20086;-84
2024/03/21 09:16:21;;;;;;;5.20;3.25;;;10.20;99.90;;;;;;8370146;28;20029;-84
2024/03/21 09:20:23;;;;;;;4.85;3.05;;;10.30;99.90;;;;;;8348891;28;20021;-84
2024/03/21 09:24:27;;;;;;;8.98;3.65;;;10.40;99.90;;;;;;8379652;28;20029;-85
2024/03/21 09:28:27;;;;;;;3.85;2.83;;;10.40;99.90;;;;;;8369766;28;20020;-85
2024/03/21 09:32:29;;;;;;;7.10;3.55;;;10.50;99.90;;;;;;8371946;28;20048;-83
2024/03/21 09:36:30;;;;;;;5.60;3.30;;;10.50;99.90;;;;;;8356221;28;20469;-83
2024/03/21 09:40:31;;;;;;;3.42;1.90;;;10.50;99.90;;;;;;8353717;28;20408;-83
2024/03/21 09:44:32;;;;;;;5.93;3.85;;;10.70;99.90;;;;;;8363535;28;20040;-83
2024/03/21 09:48:32;;;;;;;6.38;3.45;;;11.10;99.90;;;;;;8375156;28;20554;-84
2024/03/21 09:52:33;;;;;;;8.10;3.65;;;11.60;99.90;;;;;;8371926;28;20020;-84
2024/03/21 09:56:34;;;;;;;6.15;4.07;;;12.00;99.90;;;;;;8375038;28;20040;-83
2024/03/21 10:00:34;;;;;;;5.10;3.63;;;12.40;99.90;;;;;;8377593;28;20018;-83
2024/03/21 10:04:49;;;;;;;4.70;3.10;;;13.40;99.90;;;;;;8367822;28;20032;-84
2024/03/21 10:08:50;;;;;;;5.32;3.25;;;13.90;99.90;;;;;;8345630;28;20021;-83
2024/03/21 10:12:51;;;;;;;5.80;3.30;;;14.10;99.90;;;;;;8360542;28;20555;-84
2024/03/21 10:16:51;;;;;;;6.93;3.40;;;14.90;99.90;;;;;;8351247;28;20025;-85
2024/03/21 10:20:52;;;;;;;3.88;3.10;;;15.60;99.90;;;;;;8375399;28;20041;-82
2024/03/21 10:24:54;;;;;;;6.20;3.13;;;16.20;99.90;;;;;;8363360;28;20144;-84
2024/03/21 10:28:55;;;;;;;4.53;3.28;;;16.30;99.90;;;;;;8338309;28;20570;-83
2024/03/21 10:32:57;;;;;;;6.45;2.90;;;16.20;99.90;;;;;;8349692;28;20033;-82
2024/03/21 10:36:58;;;;;;;4.53;2.95;;;16.30;99.90;;;;;;8372510;28;20027;-82
2024/03/21 10:41:04;;;;;;;4.45;3.08;;;15.70;99.90;;;;;;8369100;28;20409;-81
2024/03/21 10:45:06;;;;;;;4.40;3.13;;;15.80;99.90;;;;;;8354424;28;20033;-82
2024/03/21 10:49:14;;;;;;;5.88;3.00;;;16.60;99.90;;;;;;8353584;28;20021;-81
2024/03/21 10:53:19;;;;;;;4.00;2.78;;;16.60;99.90;;;;;;8350896;28;20060;-82
2024/03/21 10:57:28;;;;;;;4.13;2.60;;;16.30;99.90;;;;;;8353605;28;20119;-81
2024/03/21 11:01:39;;;;;;;4.78;2.92;;;16.00;99.90;;;;;;8339984;28;20017;-85
2024/03/21 11:05:40;;;;;;;4.38;2.47;;;15.30;99.90;;;;;;8365568;28;20029;-82
2024/03/21 11:09:45;;;;;;;4.38;3.00;;;15.40;99.90;;;;;;8373009;28;20128;-82
2024/03/21 11:13:46;;;;;;;4.18;2.90;;;15.40;99.90;;;;;;8352187;28;20033;-83
2024/03/21 11:17:47;;;;;;;4.20;2.70;;;15.30;99.90;;;;;;8372709;28;20025;-83
2024/03/21 11:21:48;;;;;;;4.53;3.22;;;15.40;99.90;;;;;;8374245;28;20090;-85
2024/03/21 11:25:49;;;;;;;4.60;2.92;;;16.10;99.90;;;;;;8363450;28;20033;-84
2024/03/21 11:29:50;;;;;;;3.58;2.78;;;18.50;99.90;;;;;;8372032;28;20028;-84
2024/03/21 11:33:51;;;;;;;3.22;2.50;;;18.70;99.90;;;;;;8357875;28;20025;-85
2024/03/21 11:37:52;;;;;;;4.45;2.53;;;17.90;99.90;;;;;;8363314;28;20023;-86
2024/03/21 11:41:59;;;;;;;2.92;2.20;;;16.60;99.90;;;;;;8380723;28;20040;-85
2024/03/21 11:45:59;;;;;;;5.30;2.80;;;16.10;99.90;;;;;;8372394;28;20025;-85
2024/03/21 11:50:03;;;;;;;4.97;2.80;;;16.50;99.90;;;;;;8378275;28;20080;-85
2024/03/21 11:54:05;;;;;;;3.22;2.55;;;18.00;99.90;;;;;;8361686;28;20047;-85
2024/03/21 11:58:07;;;;;;;3.08;2.40;;;18.80;99.90;;;;;;8384322;28;20711;-84
2024/03/21 12:02:11;;;;;;;3.95;2.28;;;18.80;99.90;;;;;;8375353;28;20039;-84
2024/03/21 12:06:12;;;;;;;4.07;2.40;;;18.70;99.90;;;;;;8373611;28;20035;-83
2024/03/21 12:10:13;;;;;;;3.13;2.63;;;18.10;99.90;;;;;;8368160;28;20029;-84
2024/03/21 12:14:13;;;;;;;3.00;2.38;;;19.40;99.90;;;;;;8368483;28;20491;-84
2024/03/21 12:18:14;;;;;;;3.35;2.47;;;20.70;99.90;;;;;;8365603;28;20029;-83
2024/03/21 12:22:17;;;;;;;3.88;2.42;;;22.30;99.90;;;;;;8367973;28;20035;-85
2024/03/21 12:26:18;;;;;;;3.47;2.33;;;21.30;99.90;;;;;;8377031;28;20451;-84
2024/03/21 12:30:18;;;;;;;4.35;2.28;;;19.50;99.90;;;;;;8361459;28;20046;-85
2024/03/21 12:34:18;;;;;;;3.67;2.53;;;18.10;99.90;;;;;;8376970;28;20021;-85
2024/03/21 12:38:19;;;;;;;3.15;2.17;;;18.40;99.90;;;;;;8357941;28;20021;-84
2024/03/21 12:42:20;;;;;;;2.50;2.03;;;20.10;99.90;;;;;;8380179;28;20032;-84
2024/03/21 12:46:20;;;;;;;2.42;2.17;;;21.50;99.90;;;;;;8381122;28;20032;-84
2024/03/21 12:50:21;;;;;;;2.00;1.80;;;21.60;99.90;;;;;;8371229;28;20374;-82
2024/03/21 12:54:21;;;;;;;3.60;1.98;;;21.00;99.90;;;;;;8351726;28;20037;-84
2024/03/21 12:58:22;;;;;;;1.98;1.42;;;19.90;99.90;;;;;;8369851;28;20078;-85
2024/03/21 13:02:23;;;;;;;5.50;2.35;;;19.10;99.90;;;;;;8357956;28;20029;-85
2024/03/21 13:06:26;;;;;;;2.17;1.65;;;18.50;99.90;;;;;;8343201;28;20032;-85
2024/03/21 13:10:31;;;;;;;2.85;1.70;;;18.20;99.90;;;;;;8378930;28;20033;-84
2024/03/21 13:14:31;;;;;;;2.08;1.27;;;17.90;99.90;;;;;;8364969;28;20021;-84
2024/03/21 13:18:32;;;;;;;3.03;1.70;;;18.10;99.90;;;;;;8375795;28;20035;-84
2024/03/21 13:22:32;;;;;;;3.60;1.80;;;17.80;99.90;;;;;;8360419;28;20087;-85
2024/03/21 13:26:33;;;;;;;5.32;1.70;;;17.30;99.90;;;;;;8374595;28;20107;-85
2024/03/21 13:30:33;;;;;;;2.58;1.77;;;16.90;99.90;;;;;;8382636;28;20043;-84
2024/03/21 13:34:34;;;;;;;2.75;1.38;;;16.50;99.90;;;;;;8350639;28;20052;-84
2024/03/21 13:38:34;;;;;;;4.05;1.35;;;16.40;99.90;;;;;;8381496;28;20039;-82
2024/03/21 13:42:37;;;;;;;0.75;0.75;;;16.50;99.90;;;;;;8377281;28;20036;-84
2024/03/21 13:46:37;;;;;;;2.47;1.20;;;16.50;99.90;;;;;;8372451;28;20028;-83
2024/03/21 13:50:38;;;;;;;1.42;0.95;;;16.60;99.90;;;;;;8376075;28;20021;-83
2024/03/21 13:54:38;;;;;;;1.33;0.90;;;16.50;99.90;;;;;;8368684;28;20029;-83
2024/03/21 13:58:39;;;;;;;3.08;1.30;;;16.30;99.90;;;;;;8361223;28;20032;-84
2024/03/21 14:02:41;;;;;;;0.40;0.40;;;16.30;99.90;;;;;;8375672;28;20025;-83
2024/03/21 14:06:41;;;;;;;1.27;0.90;;;16.70;99.90;;;;;;8367040;28;20039;-84
2024/03/21 14:10:42;;;;;;;1.30;1.20;;;16.70;99.90;;;;;;8343059;28;20394;-84
2024/03/21 14:14:42;;;;;;;1.02;0.90;;;16.80;99.90;;;;;;8352051;28;20033;-84
2024/03/21 14:18:43;;;;;;;2.17;1.23;;;16.50;99.90;;;;;;8366640;28;20033;-84
2024/03/21 14:22:44;;;;;;;1.20;1.10;;;17.70;99.90;;;;;;8362031;28;20718;-85
2024/03/21 14:26:45;;;;;;;3.78;1.30;;;19.40;99.90;;;;;;8372621;28;20024;-84
2024/03/21 14:30:47;;;;;;;1.35;0.93;;;18.00;99.90;;;;;;8371787;28;20103;-84
2024/03/21 14:34:50;;;;;;;1.70;1.30;;;16.70;99.90;;;;;;8373060;28;20024;-84
2024/03/21 14:38:51;;;;;;;1.63;1.10;;;16.00;99.90;;;;;;8364786;28;20035;-85
2024/03/21 14:42:51;;;;;;;2.28;1.10;;;15.80;99.90;;;;;;8377161;28;20028;-83
2024/03/21 14:46:52;;;;;;;1.52;1.30;;;17.40;99.90;;;;;;8353448;28;20021;-84
2024/03/21 14:50:52;;;;;;;2.80;1.50;;;19.20;99.90;;;;;;8375404;28;20025;-85
2024/03/21 14:54:53;;;;;;;1.40;1.27;;;19.60;99.90;;;;;;8355257;28;20028;-84
2024/03/21 14:58:53;;;;;;;2.28;1.50;;;19.80;99.90;;;;;;8371674;28;20500;-85
2024/03/21 15:02:54;;;;;;;1.55;1.30;;;18.90;99.90;;;;;;8362827;28;20024;-85
2024/03/21 15:06:54;;;;;;;1.95;1.23;;;16.90;99.90;;;;;;8380122;28;20025;-85
2024/03/21 15:10:55;;;;;;;1.50;1.15;;;16.00;99.90;;;;;;8367677;28;20113;-85
2024/03/21 15:14:56;;;;;;;0.68;0.63;;;15.80;99.90;;;;;;8359485;28;20032;-86
2024/03/21 15:18:57;;;;;;;1.15;0.93;;;15.90;99.90;;;;;;8379569;28;20028;-86
2024/03/21 15:22:58;;;;;;;1.40;1.05;;;15.80;99.90;;;;;;8355245;28;20020;-85
2024/03/21 15:26:59;;;;;;;1.75;1.15;;;15.90;99.90;;;;;;8364790;28;20402;-86
2024/03/21 15:30:59;;;;;;;1.67;1.25;;;15.90;99.90;;;;;;8352421;28;20031;-84
2024/03/21 15:35:00;;;;;;;2.13;1.20;;;15.70;99.90;;;;;;8349474;28;20030;-85
2024/03/21 15:39:00;;;;;;;1.80;1.30;;;15.80;99.90;;;;;;8378865;28;20024;-86
2024/03/21 15:43:01;;;;;;;2.28;1.40;;;15.70;99.90;;;;;;8352348;28;20060;-86
2024/03/21 15:47:02;;;;;;;2.28;1.60;;;15.70;99.90;;;;;;8380060;28;20524;-86
2024/03/21 15:51:03;;;;;;;1.48;1.38;;;15.60;99.90;;;;;;8353096;28;20080;-86
2024/03/21 15:55:04;;;;;;;1.95;1.73;;;15.60;99.90;;;;;;8366393;28;20077;-84
2024/03/21 15:59:04;;;;;;;2.00;1.30;;;15.70;99.90;;;;;;8368859;28;20398;-85
2024/03/21 16:03:05;;;;;;;1.92;1.42;;;15.70;99.90;;;;;;8355664;28;20037;-85
2024/03/21 16:07:05;;;;;;;2.22;1.52;;;15.40;99.90;;;;;;8375669;28;20504;-85
2024/03/21 16:11:06;;;;;;;1.98;1.33;;;15.20;99.90;;;;;;8359297;28;20038;-86
2024/03/21 16:15:07;;;;;;;2.83;1.50;;;15.20;99.90;;;;;;8368943;28;20036;-86
2024/03/21 16:19:07;;;;;;;2.97;1.60;;;15.00;99.90;;;;;;8360491;28;20125;-86
2024/03/21 16:23:09;;;;;;;1.50;1.38;;;14.90;99.90;;;;;;8372413;28;20036;-85
2024/03/21 16:27:10;;;;;;;1.95;1.30;;;15.30;99.90;;;;;;8360426;28;20021;-86
2024/03/21 16:31:10;;;;;;;2.35;1.45;;;15.30;99.90;;;;;;8373346;28;20496;-85
2024/03/21 16:35:11;;;;;;;1.83;1.30;;;14.90;99.90;;;;;;8377400;28;20072;-85
2024/03/21 16:39:14;;;;;;;2.72;0.60;;;14.70;99.90;;;;;;8376703;28;20366;-84
2024/03/21 16:43:15;;;;;;;2.35;1.10;;;14.60;99.90;;;;;;8367358;28;20025;-85
2024/03/21 16:47:15;;;;;;;2.55;1.92;;;14.40;99.90;;;;;;8384683;28;20496;-85
2024/03/21 16:51:16;;;;;;;4.68;2.80;;;14.30;99.90;;;;;;8380945;28;20119;-86
2024/03/21 16:55:16;;;;;;;5.57;3.38;;;14.10;99.90;;;;;;8349763;28;20029;-84
2024/03/21 16:59:20;;;;;;;7.78;5.15;;;13.80;99.90;;;;;;8349784;28;20029;-86
2024/03/21 17:03:20;;;;;;;7.55;5.07;;;13.60;99.90;;;;;;8362937;28;20036;-86
2024/03/21 17:07:21;;;;;;;10.65;6.13;;;13.40;99.90;;;;;;8355741;28;20092;-86
2024/03/21 17:11:21;;;;;;;10.88;6.40;;;13.10;99.90;;;;;;8352015;28;20022;-86
2024/03/21 17:15:22;;;;;;;11.73;6.78;;;13.00;99.90;;;;;;8353943;28;20125;-85
2024/03/21 17:19:23;;;;;;;14.73;8.00;;;12.70;99.90;;;;;;8363024;28;20401;-85
2024/03/21 17:23:26;;;;;;;13.50;7.80;;;12.50;99.90;;;;;;8357612;28;20119;-86
2024/03/21 17:27:26;;;;;;;15.52;8.77;;;12.10;99.90;;;;;;8351740;28;20037;-85
2024/03/21 17:31:27;;;;;;;12.00;7.85;;;11.80;99.90;;;;;;8354060;28;20393;-86
2024/03/21 17:35:28;;;;;;;14.38;8.70;;;11.50;99.90;;;;;;8376463;28;20040;-86
2024/03/21 17:39:28;;;;;;;15.88;9.55;;;11.30;99.90;;;;;;8372935;28;20036;-85
2024/03/21 17:43:29;;;;;;;19.08;10.30;;;11.00;99.90;;;;;;8364439;28;20029;-86
2024/03/21 17:47:29;;;;;;;19.98;11.02;;;10.80;99.90;;;;;;8386280;28;20037;-86
2024/03/21 17:51:30;;;;;;;22.75;11.23;;;10.60;99.90;;;;;;8360136;28;20489;-85
2024/03/21 17:55:31;;;;;;;22.25;11.80;;;10.40;99.90;;;;;;8352596;28;20032;-86
2024/03/21 17:59:31;;;;;;;24.33;12.25;;;10.30;99.90;;;;;;8357308;28;20079;-86
2024/03/21 18:04:01;;;;;;;26.20;13.50;;;10.20;99.90;;;;;;8373800;28;20036;-86
2024/03/21 18:08:41;;;;;;;23.70;13.35;;;10.30;99.90;;;;;;8350610;28;20040;-86
2024/03/21 18:12:45;;;;;;;28.75;13.68;;;10.20;99.90;;;;;;8343132;28;20029;-84
2024/03/21 18:16:48;;;;;;;29.92;13.70;;;10.30;99.90;;;;;;8352374;28;20031;-83
2024/03/21 18:21:07;;;;;;;27.75;13.15;;;9.70;99.90;;;;;;8374201;28;20032;-84
2024/03/21 18:25:08;;;;;;;25.83;12.65;;;9.50;99.90;;;;;;8365988;28;20492;-84
2024/03/21 18:29:09;;;;;;;23.65;13.00;;;9.20;99.90;;;;;;8360238;28;20033;-84
2024/03/21 18:33:10;;;;;;;24.67;13.15;;;9.10;99.90;;;;;;8360662;28;20017;-84
2024/03/21 18:37:13;;;;;;;27.65;13.30;;;9.00;99.90;;;;;;8366522;28;20033;-84
2024/03/21 18:41:18;;;;;;;25.38;12.55;;;9.00;99.90;;;;;;8358104;28;20030;-84
2024/03/21 18:45:21;;;;;;;26.40;12.82;;;8.90;99.90;;;;;;8384003;28;20067;-84
2024/03/21 18:49:22;;;;;;;27.25;13.57;;;8.70;99.90;;;;;;8362664;28;20025;-85
2024/03/21 18:53:26;;;;;;;27.85;12.95;;;9.00;99.90;;;;;;8376981;28;20481;-84
2024/03/21 18:57:40;;;;;;;33.00;14.63;;;9.20;99.90;;;;;;8374876;28;20184;-85
2024/03/21 19:01:41;;;;;;;25.33;13.30;;;9.30;99.90;;;;;;8376530;28;20032;-84
2024/03/21 19:05:44;;;;;;;28.80;14.18;;;8.90;99.90;;;;;;8368710;28;20077;-84
2024/03/21 19:09:45;;;;;;;27.92;13.55;;;8.60;99.90;;;;;;8365620;28;20013;-84
2024/03/21 19:13:45;;;;;;;29.25;13.77;;;8.40;99.90;;;;;;8360547;28;20017;-84
2024/03/21 19:17:46;;;;;;;28.13;13.35;;;8.40;99.90;;;;;;8364507;28;20686;-84
2024/03/21 19:21:49;;;;;;;26.80;12.43;;;8.70;99.90;;;;;;8356287;28;20041;-84
2024/03/21 19:25:53;;;;;;;23.48;11.18;;;8.80;99.90;;;;;;8378410;28;20640;-85
2024/03/21 19:29:57;;;;;;;28.13;13.23;;;9.00;99.90;;;;;;8362374;28;20025;-84
2024/03/21 19:34:08;;;;;;;29.20;14.50;;;9.10;99.90;;;;;;8371028;28;20040;-84
2024/03/21 19:38:18;;;;;;;24.88;13.18;;;8.80;99.90;;;;;;8354548;28;20028;-85
2024/03/21 19:42:22;;;;;;;24.08;11.73;;;8.60;99.90;;;;;;8371427;28;20032;-85
2024/03/21 19:46:26;;;;;;;23.30;12.02;;;8.50;99.90;;;;;;8367804;28;20120;-84
2024/03/21 19:50:39;;;;;;;30.35;13.50;;;8.10;99.90;;;;;;8377300;28;20016;-85
2024/03/21 19:54:41;;;;;;;31.23;14.13;;;7.90;99.90;;;;;;8389575;28;20021;-85
2024/03/21 19:58:47;;;;;;;31.20;14.02;;;7.70;99.90;;;;;;8360856;28;20048;-85
2024/03/21 20:02:53;;;;;;;28.42;13.20;;;7.70;99.90;;;;;;8361082;28;20021;-86
2024/03/21 20:06:57;;;;;;;26.13;13.20;;;7.50;99.90;;;;;;8359654;28;20025;-86
2024/03/21 20:10:57;;;;;;;20.95;10.82;;;7.60;99.90;;;;;;8363878;28;20024;-85
2024/03/21 20:15:04;;;;;;;23.25;10.93;;;7.50;99.90;;;;;;8373387;28;20054;-84
2024/03/21 20:19:14;;;;;;;26.45;11.60;;;7.50;99.90;;;;;;8378599;28;20162;-85
2024/03/21 20:23:22;;;;;;;22.27;11.13;;;7.50;99.90;;;;;;8376983;28;20131;-84
2024/03/21 20:27:26;;;;;;;25.83;12.05;;;7.10;99.90;;;;;;8379724;28;20021;-85
2024/03/21 20:31:29;;;;;;;26.45;11.35;;;6.80;99.90;;;;;;8393857;28;20024;-85
2024/03/21 20:35:30;;;;;;;29.00;11.98;;;6.60;99.90;;;;;;8376029;28;20111;-85
2024/03/21 20:39:36;;;;;;;30.17;14.48;;;6.70;99.90;;;;;;8397082;28;20028;-84
2024/03/21 20:43:40;;;;;;;25.83;12.07;;;6.70;99.90;;;;;;8390121;28;20035;-84
2024/03/21 20:47:40;;;;;;;25.15;12.68;;;6.60;99.90;;;;;;8362326;28;20108;-84
2024/03/21 20:51:49;;;;;;;28.85;12.07;;;6.60;99.90;;;;;;8371140;28;20039;-85
2024/03/21 20:55:58;;;;;;;29.95;12.88;;;6.60;99.90;;;;;;8350665;28;20060;-85
2024/03/21 21:00:07;;;;;;;35.28;14.68;;;6.40;99.90;;;;;;8373801;28;20074;-85
2024/03/21 21:04:09;;;;;;;31.10;13.50;;;6.30;99.90;;;;;;8356472;28;20409;-83